Time;durP1;ratioP1;P1;durP2;ratioP2;P2;SDS_P1;SDS_P2;PMS_P1;PMS_P2;Temp;Humidity;BMP_temperature;BMP_pressure;BME280_temperature;BME280_humidity;BME280_pressure;Samples;Min_cycle;Max_cycle;Signal;HPM_P1;HPM_P2
2021/11/17 02:27:26;;;;;;;23.30;15.80;;;6.50;1.00;;;;;;5037514;28;20217;-86
2021/11/17 02:30:08;;;;;;;24.38;16.13;;;6.50;1.00;;;;;;5058094;28;20229;-85
2021/11/17 02:32:52;;;;;;;23.48;15.88;;;6.40;1.00;;;;;;5049416;28;20665;-85
2021/11/17 02:35:41;;;;;;;23.20;16.15;;;6.40;1.00;;;;;;5033617;28;21250;-85
2021/11/17 02:38:24;;;;;;;23.17;15.98;;;6.40;1.00;;;;;;5053855;28;21508;-85
2021/11/17 02:41:08;;;;;;;22.02;14.30;;;6.30;1.00;;;;;;5036559;28;20298;-85
2021/11/17 02:43:51;;;;;;;23.02;16.17;;;6.30;1.00;;;;;;5050544;28;20213;-84
2021/11/17 02:46:42;;;;;;;22.42;15.40;;;6.40;1.00;;;;;;5034934;28;20217;-85
2021/11/17 02:49:26;;;;;;;20.00;14.05;;;6.40;1.00;;;;;;5037551;28;20230;-86
2021/11/17 02:52:06;;;;;;;22.73;14.85;;;6.40;1.00;;;;;;5049422;28;20228;-85
2021/11/17 02:54:49;;;;;;;22.48;15.70;;;6.40;1.00;;;;;;5052291;28;20251;-87
2021/11/17 02:57:33;;;;;;;18.45;13.00;;;6.40;1.00;;;;;;5065997;28;20233;-87
2021/11/17 03:00:32;;;;;;;20.88;15.30;;;6.40;1.00;;;;;;5070114;28;20222;-86
2021/11/17 03:03:24;;;;;;;18.38;13.35;;;6.40;1.00;;;;;;5049557;28;20395;-86
2021/11/17 03:06:20;;;;;;;20.00;14.18;;;6.40;1.00;;;;;;5062773;28;20229;-85
2021/11/17 03:09:05;;;;;;;19.83;13.55;;;6.40;1.00;;;;;;5059350;28;20238;-85
2021/11/17 03:11:48;;;;;;;18.80;14.32;;;6.30;1.00;;;;;;5057991;28;20272;-86
2021/11/17 03:14:34;;;;;;;21.70;15.13;;;6.30;1.00;;;;;;5055086;28;20236;-85
2021/11/17 03:17:14;;;;;;;19.05;14.73;;;6.30;1.00;;;;;;5055717;28;20218;-85
2021/11/17 03:19:53;;;;;;;19.42;14.40;;;6.30;1.00;;;;;;5057817;28;20959;-85
2021/11/17 03:22:53;;;;;;;20.60;14.95;;;6.30;1.00;;;;;;5047825;28;21161;-85
2021/11/17 03:25:36;;;;;;;20.70;13.25;;;6.30;1.00;;;;;;5057245;28;20217;-85
2021/11/17 03:28:21;;;;;;;19.63;14.07;;;6.30;1.00;;;;;;5056044;28;20287;-85
2021/11/17 03:31:04;;;;;;;22.25;14.52;;;6.30;1.00;;;;;;5043433;28;20213;-87
2021/11/17 03:33:43;;;;;;;17.23;12.43;;;6.30;1.00;;;;;;5063813;28;20255;-84
2021/11/17 03:36:35;;;;;;;19.92;13.98;;;6.30;1.00;;;;;;5067485;28;20229;-85
2021/11/17 03:39:34;;;;;;;16.63;12.77;;;6.30;1.00;;;;;;5067623;28;20294;-84
2021/11/17 03:42:23;;;;;;;19.40;14.38;;;6.30;1.00;;;;;;5067572;28;21233;-86
2021/11/17 03:45:18;;;;;;;19.50;13.82;;;6.20;1.00;;;;;;5066860;28;20225;-85
2021/11/17 03:48:00;;;;;;;19.48;15.07;;;6.30;1.00;;;;;;5063275;28;20729;-86
2021/11/17 03:50:48;;;;;;;18.58;13.10;;;6.30;1.00;;;;;;5068004;28;20229;-86
2021/11/17 03:53:31;;;;;;;17.15;12.48;;;6.30;1.00;;;;;;5054354;28;20244;-85
2021/11/17 03:56:27;;;;;;;18.55;12.77;;;6.30;1.00;;;;;;5047325;28;20753;-85
2021/11/17 03:59:08;;;;;;;17.38;11.95;;;6.30;1.00;;;;;;5063041;28;20615;-86
2021/11/17 04:01:50;;;;;;;14.15;10.38;;;6.20;1.00;;;;;;5070590;28;20401;-86
2021/11/17 04:04:47;;;;;;;18.60;11.90;;;6.20;1.00;;;;;;5075332;28;20205;-86
2021/11/17 04:07:28;;;;;;;16.48;12.02;;;6.20;1.00;;;;;;5072384;28;20382;-86
2021/11/17 04:10:10;;;;;;;17.23;12.60;;;6.30;1.00;;;;;;5065697;28;20273;-87
2021/11/17 04:12:51;;;;;;;17.23;12.60;;;6.30;1.00;;;;;;5058137;28;20228;-87
2021/11/17 04:15:42;;;;;;;17.52;12.60;;;6.30;1.00;;;;;;5054582;28;20747;-86
2021/11/17 04:18:20;;;;;;;16.48;11.95;;;6.30;1.00;;;;;;5053750;28;20240;-87
2021/11/17 04:20:59;;;;;;;20.25;13.80;;;6.30;1.00;;;;;;5061385;28;21546;-86
2021/11/17 04:23:38;;;;;;;16.58;12.13;;;6.30;1.00;;;;;;5045131;28;20335;-86
2021/11/17 04:26:29;;;;;;;16.88;12.05;;;6.30;1.00;;;;;;5046369;28;21055;-87
2021/11/17 04:29:18;;;;;;;15.15;10.82;;;6.40;1.00;;;;;;5054500;28;20730;-87
2021/11/17 04:32:16;;;;;;;10.98;9.50;;;6.30;1.00;;;;;;5077930;27;20217;-87
2021/11/17 04:35:10;;;;;;;8.63;7.72;;;6.20;1.00;;;;;;5058479;28;20225;-86
2021/11/17 04:38:02;;;;;;;11.25;8.07;;;6.10;1.00;;;;;;5057861;28;20275;-86
2021/11/17 04:40:57;;;;;;;11.60;8.82;;;6.10;1.00;;;;;;5026802;28;20739;-87
2021/11/17 04:43:46;;;;;;;11.77;9.38;;;6.10;1.00;;;;;;5052951;28;20278;-86
2021/11/17 04:46:30;;;;;;;15.98;11.65;;;6.10;1.00;;;;;;5057742;28;20318;-85
2021/11/17 04:49:11;;;;;;;12.90;9.48;;;6.10;1.00;;;;;;5055529;28;20243;-86
2021/11/17 04:52:05;;;;;;;12.50;10.05;;;6.10;1.00;;;;;;5073052;28;20213;-86
2021/11/17 04:54:55;;;;;;;10.00;7.85;;;6.00;1.00;;;;;;5060000;28;20287;-87
2021/11/17 04:57:44;;;;;;;11.13;7.25;;;5.90;1.00;;;;;;5059544;28;20209;-87
2021/11/17 05:00:29;;;;;;;11.80;9.18;;;5.90;1.00;;;;;;5054506;28;20232;-87
2021/11/17 05:03:11;;;;;;;8.13;6.80;;;5.90;1.00;;;;;;5042857;28;20236;-87
2021/11/17 05:05:53;;;;;;;7.20;5.38;;;5.80;1.00;;;;;;5058416;28;21380;-87
2021/11/17 05:08:29;;;;;;;7.88;6.07;;;5.80;1.00;;;;;;5059810;28;20258;-87
2021/11/17 05:11:11;;;;;;;7.95;5.88;;;5.80;1.00;;;;;;5050247;28;21491;-87
2021/11/17 05:13:47;;;;;;;7.13;5.85;;;5.80;1.00;;;;;;5060593;28;20364;-87
2021/11/17 05:16:29;;;;;;;9.05;5.68;;;5.70;1.00;;;;;;5062823;28;20220;-86
2021/11/17 05:19:06;;;;;;;9.75;6.80;;;5.70;1.00;;;;;;5057889;28;20267;-85
2021/11/17 05:21:51;;;;;;;9.15;6.80;;;5.80;1.00;;;;;;5058704;28;20215;-87
2021/11/17 05:24:42;;;;;;;8.20;6.55;;;5.80;1.00;;;;;;5060612;28;20224;-87
2021/11/17 05:27:23;;;;;;;10.90;7.88;;;5.80;1.00;;;;;;5056834;28;20809;-84
2021/11/17 05:30:02;;;;;;;11.00;6.90;;;5.90;1.00;;;;;;5046573;28;20659;-82
2021/11/17 05:32:48;;;;;;;8.45;6.53;;;5.90;1.00;;;;;;5065063;28;20461;-83
2021/11/17 05:35:30;;;;;;;10.63;7.78;;;5.90;1.00;;;;;;5041651;28;20275;-85
2021/11/17 05:38:09;;;;;;;10.40;8.00;;;5.90;1.00;;;;;;5063381;28;20287;-83
2021/11/17 05:40:52;;;;;;;11.98;7.07;;;5.90;1.00;;;;;;5035628;28;20719;-85
2021/11/17 05:43:33;;;;;;;7.93;6.40;;;5.90;1.00;;;;;;5063277;28;20263;-83
2021/11/17 05:46:18;;;;;;;11.32;7.50;;;5.90;1.00;;;;;;5046399;28;20229;-84
2021/11/17 05:48:55;;;;;;;10.52;8.13;;;5.90;1.00;;;;;;5042391;28;20717;-84
2021/11/17 05:51:41;;;;;;;11.80;8.27;;;5.90;1.00;;;;;;5076370;28;20327;-83
2021/11/17 05:54:29;;;;;;;12.63;8.95;;;5.90;1.00;;;;;;5057713;28;20221;-84
2021/11/17 05:57:23;;;;;;;11.57;8.88;;;6.00;1.00;;;;;;5059227;28;20232;-83
2021/11/17 06:00:03;;;;;;;11.45;8.57;;;6.00;1.00;;;;;;5054684;28;20240;-85
2021/11/17 06:03:09;;;;;;;12.70;9.25;;;6.00;1.00;;;;;;5063812;28;20252;-85
2021/11/17 06:05:35;;;;;;;11.70;8.90;;;5.90;1.00;;;;;;5072514;28;20241;-81
2021/11/17 06:08:02;;;;;;;13.90;9.30;;;5.90;1.00;;;;;;5075702;28;20239;-81
2021/11/17 06:10:33;;;;;;;40.17;35.60;;;5.90;1.00;;;;;;5063083;28;20244;-82
2021/11/17 06:13:02;;;;;;;11.75;10.20;;;5.90;1.00;;;;;;5080009;28;20213;-83
2021/11/17 06:15:30;;;;;;;12.48;9.73;;;5.90;1.00;;;;;;5059115;28;20232;-81
2021/11/17 06:17:59;;;;;;;12.85;9.25;;;5.90;1.00;;;;;;5053121;28;20217;-76
2021/11/17 06:20:27;;;;;;;16.33;10.68;;;5.90;1.00;;;;;;5049716;28;21203;-78
2021/11/17 06:22:57;;;;;;;10.98;8.73;;;5.90;1.00;;;;;;5052100;28;20212;-78
2021/11/17 06:25:25;;;;;;;11.32;8.35;;;5.90;1.00;;;;;;5057136;28;20220;-78
2021/11/17 06:27:55;;;;;;;11.13;9.07;;;5.90;1.00;;;;;;5061027;28;20944;-80
2021/11/17 06:30:23;;;;;;;13.18;9.23;;;5.80;1.00;;;;;;5058738;28;20280;-79
2021/11/17 06:32:52;;;;;;;13.25;10.95;;;5.70;1.00;;;;;;5053852;28;20229;-79
2021/11/17 06:35:20;;;;;;;12.65;9.40;;;5.70;1.00;;;;;;5057127;28;20232;-79
2021/11/17 06:37:46;;;;;;;11.20;8.55;;;5.60;1.00;;;;;;5047306;28;20228;-79
2021/11/17 06:40:16;;;;;;;12.85;10.13;;;5.70;1.00;;;;;;5062275;28;20239;-81
2021/11/17 06:42:45;;;;;;;12.00;8.27;;;5.60;1.00;;;;;;5058996;28;20222;-80
2021/11/17 06:45:16;;;;;;;12.00;8.55;;;5.60;1.00;;;;;;5065094;28;21340;-78
2021/11/17 06:47:44;;;;;;;13.68;11.13;;;5.60;1.00;;;;;;5060696;28;20280;-78
2021/11/17 06:50:14;;;;;;;13.40;10.40;;;5.60;1.00;;;;;;5045278;28;20233;-80
2021/11/17 06:52:41;;;;;;;13.35;10.23;;;5.60;1.00;;;;;;5053598;28;20673;-78
2021/11/17 06:55:09;;;;;;;15.75;10.05;;;5.60;1.00;;;;;;5053669;28;20308;-79
2021/11/17 06:57:35;;;;;;;14.80;11.55;;;5.60;1.00;;;;;;5055182;28;21160;-79
2021/11/17 07:00:06;;;;;;;17.70;11.73;;;5.50;1.00;;;;;;5056005;28;21035;-78
2021/11/17 07:02:34;;;;;;;13.52;10.68;;;5.60;1.00;;;;;;5060628;28;21761;-79
2021/11/17 07:05:00;;;;;;;14.52;10.77;;;5.60;1.00;;;;;;5060692;28;20235;-78
2021/11/17 07:07:27;;;;;;;17.80;15.98;;;5.60;1.00;;;;;;5071729;28;21007;-79
2021/11/17 07:09:53;;;;;;;12.98;10.52;;;5.60;1.00;;;;;;5077218;28;20237;-80
2021/11/17 07:12:20;;;;;;;13.80;10.27;;;5.60;1.00;;;;;;5080611;28;20275;-78
2021/11/17 07:14:47;;;;;;;14.80;10.18;;;5.60;1.00;;;;;;5080088;28;20231;-80
2021/11/17 07:17:15;;;;;;;11.07;9.77;;;5.60;1.00;;;;;;5068424;28;20235;-78
2021/11/17 07:19:43;;;;;;;13.27;9.73;;;5.60;1.00;;;;;;5062483;28;20239;-79
2021/11/17 07:22:10;;;;;;;14.45;11.75;;;5.50;1.00;;;;;;5062559;28;20260;-80
2021/11/17 07:24:39;;;;;;;13.20;10.77;;;5.60;1.00;;;;;;5063314;28;20273;-79
2021/11/17 07:27:07;;;;;;;15.02;10.63;;;5.70;1.00;;;;;;5060290;28;20225;-79
2021/11/17 07:29:34;;;;;;;15.05;9.90;;;5.60;1.00;;;;;;5055804;28;20225;-79
2021/11/17 07:32:03;;;;;;;13.48;10.73;;;5.60;1.00;;;;;;5052721;28;20241;-79
2021/11/17 07:34:29;;;;;;;12.40;9.70;;;5.50;1.00;;;;;;5056763;28;20225;-78
2021/11/17 07:36:57;;;;;;;12.80;9.52;;;5.50;1.00;;;;;;5051683;28;20214;-81
2021/11/17 07:39:25;;;;;;;13.50;9.93;;;5.60;1.00;;;;;;5055452;28;20746;-78
2021/11/17 07:41:53;;;;;;;13.50;10.70;;;5.60;1.00;;;;;;5049895;28;20231;-78
2021/11/17 07:44:22;;;;;;;16.05;11.32;;;5.70;1.00;;;;;;5058423;28;20224;-79
2021/11/17 07:46:51;;;;;;;14.85;10.35;;;5.70;1.00;;;;;;5066317;28;20208;-78
2021/11/17 07:49:18;;;;;;;12.30;9.60;;;5.70;1.00;;;;;;5052162;28;20258;-79
2021/11/17 07:51:46;;;;;;;13.30;10.38;;;5.70;1.00;;;;;;5051025;28;20294;-79
2021/11/17 07:54:14;;;;;;;17.63;11.15;;;5.70;1.00;;;;;;5041894;28;20224;-79
2021/11/17 07:56:42;;;;;;;13.95;10.95;;;5.70;1.00;;;;;;5058768;28;20636;-79
2021/11/17 07:59:12;;;;;;;13.40;10.30;;;5.70;1.00;;;;;;5051046;28;20235;-79
2021/11/17 08:01:39;;;;;;;15.77;11.50;;;5.70;1.00;;;;;;5053618;28;20221;-80
2021/11/17 08:04:08;;;;;;;16.75;12.32;;;5.70;1.00;;;;;;5032392;28;21616;-78
2021/11/17 08:06:36;;;;;;;17.30;12.50;;;5.80;1.00;;;;;;5051103;28;21035;-78
2021/11/17 08:09:03;;;;;;;16.50;10.48;;;5.80;1.00;;;;;;5052618;28;20238;-78
2021/11/17 08:11:33;;;;;;;14.95;10.95;;;5.80;1.00;;;;;;5054522;28;20229;-78
2021/11/17 08:14:00;;;;;;;18.10;12.55;;;5.80;1.00;;;;;;5038432;28;20247;-79
2021/11/17 08:16:27;;;;;;;13.90;11.00;;;5.70;1.00;;;;;;5057536;28;21140;-79
2021/11/17 08:18:53;;;;;;;16.17;12.02;;;5.70;1.00;;;;;;5046072;28;20237;-79
2021/11/17 08:21:20;;;;;;;17.65;12.10;;;5.70;1.00;;;;;;5053485;28;20228;-79
2021/11/17 08:23:47;;;;;;;14.38;11.85;;;5.70;1.00;;;;;;5048557;28;20231;-78
2021/11/17 08:26:17;;;;;;;18.77;13.00;;;5.70;1.00;;;;;;5052370;28;20220;-80
2021/11/17 08:28:45;;;;;;;15.85;11.90;;;5.60;1.00;;;;;;5050314;28;20260;-78
2021/11/17 08:31:15;;;;;;;18.73;15.55;;;5.50;1.00;;;;;;5033715;28;20232;-77
2021/11/17 08:33:44;;;;;;;17.13;11.93;;;5.60;1.00;;;;;;5053800;28;20235;-77
2021/11/17 08:36:12;;;;;;;19.00;13.52;;;5.60;1.00;;;;;;5055753;28;20271;-79
2021/11/17 08:38:39;;;;;;;19.15;13.43;;;5.60;1.00;;;;;;5049699;28;21342;-79
2021/11/17 08:41:08;;;;;;;16.75;12.90;;;5.60;1.00;;;;;;5052520;28;21157;-78
2021/11/17 08:43:35;;;;;;;19.33;14.32;;;5.60;1.00;;;;;;5052884;28;20239;-79
2021/11/17 08:46:04;;;;;;;21.08;14.13;;;5.60;1.00;;;;;;5056178;28;20214;-77
2021/11/17 08:48:33;;;;;;;16.95;12.60;;;5.60;1.00;;;;;;5064629;28;20229;-81
2021/11/17 08:51:02;;;;;;;19.20;13.65;;;5.60;1.00;;;;;;5050863;28;20213;-80
2021/11/17 08:53:32;;;;;;;20.88;14.07;;;5.60;1.00;;;;;;5049074;28;20709;-81
2021/11/17 08:55:59;;;;;;;19.00;13.38;;;5.70;1.00;;;;;;5051345;28;20603;-79
2021/11/17 08:58:26;;;;;;;21.50;13.25;;;5.70;1.00;;;;;;5048653;28;24913;-80
2021/11/17 09:00:54;;;;;;;16.70;12.48;;;5.70;1.00;;;;;;5050509;28;20285;-77
2021/11/17 09:03:22;;;;;;;18.75;13.43;;;5.70;1.00;;;;;;5052873;28;20279;-80
2021/11/17 09:05:52;;;;;;;21.17;14.10;;;5.60;1.00;;;;;;5049586;28;20221;-78
2021/11/17 09:08:20;;;;;;;23.10;12.70;;;5.70;1.00;;;;;;5050130;28;20585;-80
2021/11/17 09:10:50;;;;;;;20.65;13.75;;;5.70;1.00;;;;;;5049667;28;20232;-78
2021/11/17 09:13:17;;;;;;;20.83;13.18;;;5.80;1.00;;;;;;5050350;28;20221;-78
2021/11/17 09:15:47;;;;;;;22.27;14.50;;;5.90;1.00;;;;;;5052773;28;20232;-79
2021/11/17 09:18:15;;;;;;;19.70;13.38;;;5.90;1.00;;;;;;5049031;28;20236;-79
2021/11/17 09:20:44;;;;;;;23.33;14.98;;;5.90;1.00;;;;;;5050288;28;20225;-79
2021/11/17 09:23:12;;;;;;;16.25;12.63;;;5.90;1.00;;;;;;5046526;28;20236;-78
2021/11/17 09:25:39;;;;;;;18.40;13.52;;;5.90;1.00;;;;;;5057360;28;20856;-77
2021/11/17 09:28:07;;;;;;;19.55;13.00;;;6.00;1.00;;;;;;5048076;28;20217;-78
2021/11/17 09:30:35;;;;;;;19.38;13.35;;;6.00;1.00;;;;;;5054405;28;20239;-78
2021/11/17 09:33:05;;;;;;;18.38;13.02;;;6.10;1.00;;;;;;5046298;28;20221;-79
2021/11/17 09:35:34;;;;;;;15.40;11.50;;;6.10;1.00;;;;;;5049082;28;20244;-78
2021/11/17 09:38:04;;;;;;;21.88;12.43;;;6.10;1.00;;;;;;5046225;28;20431;-78
2021/11/17 09:40:35;;;;;;;17.25;12.55;;;6.20;1.00;;;;;;5045009;28;20240;-78
2021/11/17 09:43:02;;;;;;;17.48;11.57;;;6.30;1.00;;;;;;5051600;28;20228;-78
2021/11/17 09:45:29;;;;;;;17.95;12.18;;;6.30;1.00;;;;;;5049589;28;20226;-78
2021/11/17 09:47:59;;;;;;;15.85;10.85;;;6.30;1.00;;;;;;5047615;28;20299;-79
2021/11/17 09:50:32;;;;;;;15.98;11.07;;;6.20;1.00;;;;;;5055801;28;20275;-78
2021/11/17 09:53:05;;;;;;;18.13;12.32;;;6.30;1.00;;;;;;5054572;28;20221;-78
2021/11/17 09:55:36;;;;;;;20.65;12.52;;;6.20;1.00;;;;;;5055978;28;20252;-77
2021/11/17 09:58:06;;;;;;;13.73;10.88;;;6.30;1.00;;;;;;5058911;28;20230;-77
2021/11/17 10:00:39;;;;;;;14.82;10.75;;;6.30;1.00;;;;;;5050666;28;20224;-78
2021/11/17 10:03:10;;;;;;;16.55;11.23;;;6.20;1.00;;;;;;5055797;28;20635;-77
2021/11/17 10:08:44;;;;;;;14.75;10.75;;;6.10;1.00;;;;;;5056068;28;20465;-77
2021/11/17 10:11:20;;;;;;;18.10;12.45;;;6.10;1.00;;;;;;5041672;28;20677;-78
2021/11/17 10:13:53;;;;;;;15.82;11.38;;;6.20;1.00;;;;;;5061100;28;20220;-79
2021/11/17 10:16:23;;;;;;;13.43;10.68;;;6.20;1.00;;;;;;5055639;28;20224;-79
2021/11/17 10:18:54;;;;;;;21.10;11.35;;;6.10;1.00;;;;;;5051810;28;20775;-77
2021/11/17 10:21:31;;;;;;;17.05;10.75;;;6.20;1.00;;;;;;5055608;28;20886;-79
2021/11/17 10:24:05;;;;;;;15.98;11.50;;;6.30;1.00;;;;;;5060989;28;20342;-78
2021/11/17 10:26:37;;;;;;;16.77;11.63;;;6.40;1.00;;;;;;5058380;28;20220;-79
2021/11/17 10:29:07;;;;;;;15.32;11.30;;;6.40;1.00;;;;;;5056666;28;20236;-79
2021/11/17 10:31:49;;;;;;;14.68;10.70;;;6.40;1.00;;;;;;5059530;28;25018;-78
2021/11/17 10:34:18;;;;;;;14.73;10.82;;;6.40;1.00;;;;;;5034485;28;20320;-77
2021/11/17 10:36:52;;;;;;;15.70;11.77;;;6.50;1.00;;;;;;5053006;28;20274;-78
2021/11/17 10:39:23;;;;;;;14.20;10.38;;;6.50;1.00;;;;;;5054005;28;20236;-77
2021/11/17 10:42:03;;;;;;;13.15;9.50;;;6.50;1.00;;;;;;5057358;28;20244;-79
2021/11/17 10:44:53;;;;;;;16.27;10.95;;;6.40;1.00;;;;;;5051773;28;20311;-79
2021/11/17 10:47:36;;;;;;;12.80;10.18;;;6.40;1.00;;;;;;5056954;28;20240;-78
2021/11/17 10:50:28;;;;;;;15.32;9.57;;;6.40;1.00;;;;;;5038806;28;20247;-79
2021/11/17 10:52:57;;;;;;;14.88;9.77;;;6.50;1.00;;;;;;5038048;28;20324;-78
2021/11/17 10:55:31;;;;;;;19.05;10.00;;;6.40;1.00;;;;;;5067907;28;20211;-78
2021/11/17 10:57:57;;;;;;;16.10;11.00;;;6.40;1.00;;;;;;5056203;28;20250;-79
2021/11/17 11:00:28;;;;;;;18.13;10.73;;;6.50;1.00;;;;;;5054501;28;20225;-79
2021/11/17 11:02:55;;;;;;;14.15;9.75;;;6.50;1.00;;;;;;5055567;28;20221;-77
2021/11/17 11:05:26;;;;;;;13.00;9.55;;;6.50;1.00;;;;;;5061109;28;20275;-77
2021/11/17 11:08:01;;;;;;;13.50;9.93;;;6.50;1.00;;;;;;5052709;28;20217;-77
2021/11/17 11:10:33;;;;;;;15.85;10.65;;;6.50;1.00;;;;;;5050871;28;20300;-78
2021/11/17 11:13:02;;;;;;;14.40;9.73;;;6.50;1.00;;;;;;5052098;28;21389;-79
2021/11/17 11:15:32;;;;;;;15.10;9.70;;;6.50;1.00;;;;;;5050438;28;20229;-77
2021/11/17 11:18:43;;;;;;;13.50;9.77;;;6.50;1.00;;;;;;5050167;28;20272;-78
2021/11/17 11:21:13;;;;;;;12.38;9.75;;;6.50;1.00;;;;;;4970079;28;21719;-79
2021/11/17 11:24:13;;;;;;;13.07;10.18;;;6.40;1.00;;;;;;5043763;28;20682;-78
2021/11/17 11:27:19;;;;;;;16.17;10.88;;;6.30;1.00;;;;;;5048004;28;20217;-77
2021/11/17 11:29:49;;;;;;;13.82;10.00;;;6.20;1.00;;;;;;5046697;28;20236;-79
2021/11/17 11:32:45;;;;;;;13.60;10.25;;;6.30;1.00;;;;;;5050513;28;20223;-78
2021/11/17 11:35:21;;;;;;;13.35;9.88;;;6.40;1.00;;;;;;5041160;28;20238;-78
2021/11/17 11:38:00;;;;;;;17.02;10.82;;;6.40;1.00;;;;;;5056398;28;20204;-76
2021/11/17 11:40:49;;;;;;;13.20;9.15;;;6.40;1.00;;;;;;5052637;28;20224;-77
2021/11/17 11:43:20;;;;;;;14.07;9.98;;;6.40;1.00;;;;;;5061840;28;20221;-78
2021/11/17 11:45:51;;;;;;;32.50;24.58;;;6.40;1.00;;;;;;5056472;28;20229;-79
2021/11/17 11:48:54;;;;;;;13.45;10.40;;;6.50;1.00;;;;;;5057746;28;20273;-78
2021/11/17 11:52:04;;;;;;;13.80;9.98;;;6.50;1.00;;;;;;5051409;28;20312;-77
2021/11/17 11:54:33;;;;;;;15.65;10.40;;;6.50;1.00;;;;;;5056087;28;20960;-78
2021/11/17 11:57:24;;;;;;;18.65;11.70;;;6.40;1.00;;;;;;5046575;28;20247;-79
2021/11/17 11:59:56;;;;;;;17.73;11.60;;;6.50;1.00;;;;;;5051981;28;20995;-78
2021/11/17 12:02:25;;;;;;;15.52;11.80;;;6.50;1.00;;;;;;5047234;28;20240;-79
2021/11/17 12:04:54;;;;;;;15.55;10.43;;;6.50;1.00;;;;;;5050106;28;20996;-79
2021/11/17 12:07:24;;;;;;;13.77;9.98;;;6.50;1.00;;;;;;5046225;28;20223;-79
2021/11/17 12:10:02;;;;;;;17.33;10.88;;;6.50;1.00;;;;;;5049346;28;20240;-81
2021/11/17 12:12:31;;;;;;;14.00;10.70;;;6.50;1.00;;;;;;5054066;28;20225;-77
2021/11/17 12:15:17;;;;;;;15.45;10.38;;;6.60;1.00;;;;;;5062417;28;20225;-80
2021/11/17 12:17:48;;;;;;;11.80;8.90;;;6.60;1.00;;;;;;5048159;28;20225;-77
2021/11/17 12:20:23;;;;;;;14.50;9.95;;;6.60;1.00;;;;;;5051940;28;20232;-78
2021/11/17 12:22:52;;;;;;;11.43;9.13;;;6.60;1.00;;;;;;5057734;28;20230;-80
2021/11/17 12:25:22;;;;;;;12.85;9.57;;;6.60;1.00;;;;;;5060953;28;20221;-79
2021/11/17 12:27:55;;;;;;;16.02;10.25;;;6.60;1.00;;;;;;5055407;28;20218;-79
2021/11/17 12:30:35;;;;;;;13.30;10.10;;;6.50;1.00;;;;;;5050265;28;20221;-79
2021/11/17 12:33:13;;;;;;;16.65;10.65;;;6.50;1.00;;;;;;5024006;28;21891;-78
2021/11/17 12:35:47;;;;;;;16.80;11.77;;;6.50;1.00;;;;;;5043144;28;20231;-79
2021/11/17 12:38:23;;;;;;;17.98;10.35;;;6.50;1.00;;;;;;5047760;28;20233;-78
2021/11/17 12:40:53;;;;;;;14.50;10.95;;;6.50;1.00;;;;;;5048669;28;20229;-78
2021/11/17 12:43:30;;;;;;;13.18;10.05;;;6.50;1.00;;;;;;5049365;28;20239;-79
2021/11/17 12:46:06;;;;;;;14.05;10.30;;;6.50;1.00;;;;;;5048588;28;20283;-79
2021/11/17 12:48:37;;;;;;;15.18;10.55;;;6.50;1.00;;;;;;5037484;28;20235;-78
2021/11/17 12:51:11;;;;;;;17.23;13.70;;;6.50;1.00;;;;;;5033264;28;20246;-79
2021/11/17 12:53:42;;;;;;;13.15;10.05;;;6.60;1.00;;;;;;5049213;28;20221;-79
2021/11/17 12:56:15;;;;;;;12.27;9.75;;;6.70;1.00;;;;;;5053255;28;20279;-79
2021/11/17 12:58:45;;;;;;;10.18;8.55;;;6.90;1.00;;;;;;5049801;28;20217;-80
2021/11/17 13:01:22;;;;;;;11.45;8.02;;;7.00;1.00;;;;;;5047877;28;20226;-79
2021/11/17 13:04:17;;;;;;;12.00;8.80;;;7.00;1.00;;;;;;5046057;28;20220;-81
2021/11/17 13:06:50;;;;;;;8.90;7.97;;;7.10;1.00;;;;;;5046168;28;21190;-78
2021/11/17 13:09:23;;;;;;;11.80;7.57;;;7.20;1.00;;;;;;5046670;28;20287;-79
2021/11/17 13:12:13;;;;;;;8.30;6.90;;;7.20;1.00;;;;;;5047014;28;20226;-80
2021/11/17 13:14:54;;;;;;;8.32;6.90;;;7.30;1.00;;;;;;5048670;28;20228;-79
2021/11/17 13:17:23;;;;;;;10.38;7.00;;;7.30;1.00;;;;;;5048369;28;20225;-79
2021/11/17 13:19:53;;;;;;;9.98;8.40;;;7.30;1.00;;;;;;5045259;28;20729;-80
2021/11/17 13:22:27;;;;;;;8.90;6.22;;;7.30;1.00;;;;;;5049809;28;20236;-80
2021/11/17 13:25:14;;;;;;;11.80;7.75;;;7.30;1.00;;;;;;5052505;28;20220;-80
2021/11/17 13:27:44;;;;;;;11.93;8.20;;;7.30;1.00;;;;;;5046385;28;20221;-79
2021/11/17 13:30:31;;;;;;;9.43;7.70;;;7.40;1.00;;;;;;5044215;28;20233;-80
2021/11/17 13:32:59;;;;;;;10.50;8.50;;;7.50;1.00;;;;;;5044676;28;20231;-79
2021/11/17 13:35:31;;;;;;;13.40;11.15;;;7.50;1.00;;;;;;5048060;28;20627;-80
2021/11/17 13:38:23;;;;;;;9.30;7.70;;;7.50;1.00;;;;;;5050367;28;20222;-79
2021/11/17 13:40:52;;;;;;;11.35;8.02;;;7.40;1.00;;;;;;5016978;28;20247;-80
2021/11/17 13:43:20;;;;;;;12.23;7.60;;;7.40;1.00;;;;;;5034477;28;21456;-80
2021/11/17 13:45:50;;;;;;;11.73;9.27;;;7.30;1.00;;;;;;5049333;28;20246;-79
2021/11/17 13:48:20;;;;;;;9.18;7.70;;;7.30;1.00;;;;;;5057320;28;20235;-80
2021/11/17 13:50:50;;;;;;;10.50;7.88;;;7.30;1.00;;;;;;5057731;28;20229;-79
2021/11/17 13:53:18;;;;;;;9.93;7.90;;;7.40;1.00;;;;;;5054963;28;20224;-80
2021/11/17 13:55:48;;;;;;;11.95;9.20;;;7.40;1.00;;;;;;5054504;28;20260;-79
2021/11/17 13:58:15;;;;;;;9.45;7.85;;;7.40;1.00;;;;;;5053434;28;20226;-82
2021/11/17 14:00:43;;;;;;;13.90;10.98;;;7.40;1.00;;;;;;5053236;28;20220;-79
2021/11/17 14:03:10;;;;;;;11.05;7.43;;;7.30;1.00;;;;;;5034714;28;20255;-80
2021/11/17 14:05:40;;;;;;;11.38;8.13;;;7.40;1.00;;;;;;5052212;28;20271;-80
2021/11/17 14:08:09;;;;;;;11.80;8.43;;;7.40;1.00;;;;;;5047831;28;20309;-80
2021/11/17 14:10:36;;;;;;;10.65;8.15;;;7.40;1.00;;;;;;5052601;28;20240;-80
2021/11/17 14:13:03;;;;;;;10.93;8.82;;;7.40;1.00;;;;;;5052176;28;22508;-80
2021/11/17 14:15:30;;;;;;;11.40;8.50;;;7.40;1.00;;;;;;5052261;28;22178;-81
2021/11/17 14:17:57;;;;;;;13.52;7.95;;;7.40;1.00;;;;;;5047904;28;20227;-81
2021/11/17 14:20:25;;;;;;;12.65;9.63;;;7.30;1.00;;;;;;5050328;28;20236;-77
2021/11/17 14:22:51;;;;;;;13.00;8.63;;;7.30;1.00;;;;;;5062922;28;20232;-80
2021/11/17 14:25:23;;;;;;;10.70;7.57;;;7.30;1.00;;;;;;5049145;28;20218;-80
2021/11/17 14:27:52;;;;;;;11.57;7.90;;;7.30;1.00;;;;;;5055597;28;20628;-81
2021/11/17 14:30:22;;;;;;;11.35;8.57;;;7.20;1.00;;;;;;5054249;28;20273;-80
2021/11/17 14:32:51;;;;;;;11.45;7.72;;;7.20;1.00;;;;;;5057740;28;20776;-80
2021/11/17 14:35:18;;;;;;;11.90;8.65;;;7.20;1.00;;;;;;5060436;28;20291;-80
2021/11/17 14:37:46;;;;;;;10.27;7.82;;;7.30;1.00;;;;;;5047263;28;20229;-79
2021/11/17 14:40:15;;;;;;;13.35;8.10;;;7.30;1.00;;;;;;5053608;28;20244;-80
2021/11/17 14:42:45;;;;;;;10.40;8.48;;;7.30;1.00;;;;;;5068728;28;20260;-79
2021/11/17 14:45:15;;;;;;;9.88;7.72;;;7.30;1.00;;;;;;5058373;28;20746;-76
2021/11/17 14:47:42;;;;;;;11.55;8.70;;;7.30;1.00;;;;;;5063835;28;20281;-78
2021/11/17 14:50:10;;;;;;;9.80;7.70;;;7.30;1.00;;;;;;5061678;28;20230;-79
2021/11/17 14:52:38;;;;;;;13.60;9.52;;;7.30;1.00;;;;;;5063890;28;20251;-79
2021/11/17 14:55:08;;;;;;;9.40;7.63;;;7.40;1.00;;;;;;5061255;28;20451;-78
2021/11/17 14:57:36;;;;;;;12.10;8.27;;;7.40;1.00;;;;;;5060287;28;20244;-77
2021/11/17 15:00:06;;;;;;;11.10;8.50;;;7.50;1.00;;;;;;5056375;28;20221;-78
2021/11/17 15:02:33;;;;;;;10.48;7.50;;;7.50;1.00;;;;;;5060583;28;20226;-77
2021/11/17 15:04:59;;;;;;;9.52;7.45;;;7.40;1.00;;;;;;5049829;28;21065;-79
2021/11/17 15:07:26;;;;;;;9.80;8.77;;;7.40;1.00;;;;;;5052680;28;20233;-79
2021/11/17 15:09:53;;;;;;;9.95;7.63;;;7.40;1.00;;;;;;5052978;28;21096;-79
2021/11/17 15:12:22;;;;;;;11.50;9.48;;;7.30;1.00;;;;;;5050861;28;20225;-78
2021/11/17 15:14:49;;;;;;;11.80;8.98;;;7.20;1.00;;;;;;5050764;28;20228;-78
2021/11/17 15:17:17;;;;;;;11.45;8.98;;;7.10;1.00;;;;;;5057387;28;20225;-79
2021/11/17 15:19:43;;;;;;;10.80;8.30;;;7.00;1.00;;;;;;5048832;28;21024;-78
2021/11/17 15:22:10;;;;;;;14.02;9.88;;;6.90;1.00;;;;;;5060665;28;20696;-78
2021/11/17 15:24:37;;;;;;;14.52;9.13;;;6.80;1.00;;;;;;5041420;28;20356;-78
2021/11/17 15:27:09;;;;;;;10.23;8.85;;;6.80;1.00;;;;;;5054006;28;20231;-78
2021/11/17 15:29:39;;;;;;;13.18;9.77;;;6.80;1.00;;;;;;5052787;28;20241;-79
2021/11/17 15:32:09;;;;;;;11.07;8.52;;;6.80;1.00;;;;;;5054000;28;20229;-80
2021/11/17 15:34:37;;;;;;;12.43;8.98;;;6.90;1.00;;;;;;5053567;28;20700;-77
2021/11/17 15:37:06;;;;;;;12.85;9.55;;;6.90;1.00;;;;;;5057181;28;20225;-79
2021/11/17 15:39:33;;;;;;;17.52;11.48;;;6.90;1.00;;;;;;5058129;28;20222;-78
2021/11/17 15:41:59;;;;;;;10.68;8.85;;;7.00;1.00;;;;;;5051207;28;23199;-78
2021/11/17 15:44:26;;;;;;;10.50;7.63;;;7.00;1.00;;;;;;5056856;28;20221;-78
2021/11/17 15:46:56;;;;;;;11.55;10.32;;;7.00;1.00;;;;;;5060196;28;20225;-77
2021/11/17 15:49:23;;;;;;;9.50;7.90;;;7.00;1.00;;;;;;5050887;28;20226;-78
2021/11/17 15:51:51;;;;;;;9.32;7.20;;;7.00;1.00;;;;;;5051753;28;20245;-77
2021/11/17 15:54:19;;;;;;;10.73;7.30;;;7.00;1.00;;;;;;5051269;28;20304;-77
2021/11/17 15:56:45;;;;;;;13.57;9.40;;;7.00;1.00;;;;;;5053570;28;20224;-78
2021/11/17 15:59:12;;;;;;;8.00;6.53;;;7.00;1.00;;;;;;5056493;28;20225;-79
2021/11/17 16:01:40;;;;;;;10.80;7.28;;;7.00;1.00;;;;;;5054359;28;20347;-79